sensor_id;sensor_type;location;lat;lon;timestamp;pressure;altitude;pressure_sealevel;temperature;humidity
78488;BME280;67885;49.758;9.582;2023-04-25T00:02:10;98434.44;;;14.29;53.11
78488;BME280;67885;49.758;9.582;2023-04-25T00:04:37;98376.66;;;13.96;52.69
78488;BME280;67885;49.758;9.582;2023-04-25T00:07:04;98484.56;;;14.58;51.74
78488;BME280;67885;49.758;9.582;2023-04-25T00:09:32;98483.91;;;14.56;53.40
78488;BME280;67885;49.758;9.582;2023-04-25T00:11:59;98476.41;;;14.52;51.95
78488;BME280;67885;49.758;9.582;2023-04-25T00:14:26;98488.22;;;14.57;52.41
78488;BME280;67885;49.758;9.582;2023-04-25T00:16:54;98480.22;;;14.57;53.41
78488;BME280;67885;49.758;9.582;2023-04-25T00:19:20;98486.22;;;14.59;53.61
78488;BME280;67885;49.758;9.582;2023-04-25T00:21:47;98486.56;;;14.56;52.90
78488;BME280;67885;49.758;9.582;2023-04-25T00:24:14;98481.41;;;14.55;51.76
78488;BME280;67885;49.758;9.582;2023-04-25T00:26:42;98483.06;;;14.47;52.58
78488;BME280;67885;49.758;9.582;2023-04-25T00:29:08;98475.72;;;14.41;52.40
78488;BME280;67885;49.758;9.582;2023-04-25T00:31:35;98481.69;;;14.35;53.10
78488;BME280;67885;49.758;9.582;2023-04-25T00:34:02;98466.03;;;14.15;52.06
78488;BME280;67885;49.758;9.582;2023-04-25T00:36:28;98442.88;;;13.91;52.91
78488;BME280;67885;49.758;9.582;2023-04-25T00:38:55;98485.03;;;14.12;52.97
78488;BME280;67885;49.758;9.582;2023-04-25T00:41:22;98484.16;;;14.04;53.48
78488;BME280;67885;49.758;9.582;2023-04-25T00:43:53;98475.66;;;13.92;54.01
78488;BME280;67885;49.758;9.582;2023-04-25T00:46:20;98490.13;;;13.89;53.67
78488;BME280;67885;49.758;9.582;2023-04-25T00:48:47;98479.59;;;13.79;54.15
78488;BME280;67885;49.758;9.582;2023-04-25T00:51:19;98481.44;;;13.79;54.84
78488;BME280;67885;49.758;9.582;2023-04-25T00:53:47;98476.78;;;13.73;54.49
78488;BME280;67885;49.758;9.582;2023-04-25T00:56:16;98474.56;;;13.68;54.41
78488;BME280;67885;49.758;9.582;2023-04-25T00:58:43;98439.91;;;13.43;54.42
78488;BME280;67885;49.758;9.582;2023-04-25T01:01:11;98462.72;;;13.54;55.26
78488;BME280;67885;49.758;9.582;2023-04-25T01:03:39;98473.56;;;13.61;55.04
78488;BME280;67885;49.758;9.582;2023-04-25T01:06:07;98451.88;;;13.47;54.64
78488;BME280;67885;49.758;9.582;2023-04-25T01:08:34;98475.03;;;13.55;54.45
78488;BME280;67885;49.758;9.582;2023-04-25T01:11:01;98473.03;;;13.57;55.55
78488;BME280;67885;49.758;9.582;2023-04-25T01:13:28;98466.19;;;13.55;54.90
78488;BME280;67885;49.758;9.582;2023-04-25T01:15:55;98472.69;;;13.60;55.37
78488;BME280;67885;49.758;9.582;2023-04-25T01:18:23;98469.72;;;13.55;55.96
78488;BME280;67885;49.758;9.582;2023-04-25T01:20:51;98470.41;;;13.65;55.01
78488;BME280;67885;49.758;9.582;2023-04-25T01:23:20;98475.41;;;13.69;54.56
78488;BME280;67885;49.758;9.582;2023-04-25T01:25:47;98470.25;;;13.67;55.14
78488;BME280;67885;49.758;9.582;2023-04-25T01:28:14;98467.75;;;13.65;55.39
78488;BME280;67885;49.758;9.582;2023-04-25T01:30:41;98471.91;;;13.68;54.34
78488;BME280;67885;49.758;9.582;2023-04-25T01:33:08;98463.41;;;13.64;54.47
78488;BME280;67885;49.758;9.582;2023-04-25T01:35:35;98430.75;;;13.38;54.41
78488;BME280;67885;49.758;9.582;2023-04-25T01:38:02;98462.06;;;13.60;55.42
78488;BME280;67885;49.758;9.582;2023-04-25T01:40:30;98456.09;;;13.58;54.22
78488;BME280;67885;49.758;9.582;2023-04-25T01:42:57;98470.53;;;13.56;55.08
78488;BME280;67885;49.758;9.582;2023-04-25T01:45:24;98469.34;;;13.50;54.45
78488;BME280;67885;49.758;9.582;2023-04-25T01:47:51;98472.63;;;13.44;54.90
78488;BME280;67885;49.758;9.582;2023-04-25T01:50:18;98475.78;;;13.39;54.11
78488;BME280;67885;49.758;9.582;2023-04-25T01:52:45;98476.13;;;13.36;53.77
78488;BME280;67885;49.758;9.582;2023-04-25T01:55:12;98471.03;;;13.25;53.73
78488;BME280;67885;49.758;9.582;2023-04-25T01:57:40;98474.47;;;13.17;53.95
78488;BME280;67885;49.758;9.582;2023-04-25T02:00:08;98462.91;;;13.00;53.90
78488;BME280;67885;49.758;9.582;2023-04-25T02:02:35;98472.63;;;12.91;53.63
78488;BME280;67885;49.758;9.582;2023-04-25T02:05:02;98466.78;;;12.79;53.66
78488;BME280;67885;49.758;9.582;2023-04-25T02:07:29;98474.56;;;12.81;53.57
78488;BME280;67885;49.758;9.582;2023-04-25T02:09:55;98474.38;;;12.74;53.88
78488;BME280;67885;49.758;9.582;2023-04-25T02:12:22;98459.88;;;12.69;53.32
78488;BME280;67885;49.758;9.582;2023-04-25T02:14:51;98475.34;;;12.73;53.89
78488;BME280;67885;49.758;9.582;2023-04-25T02:17:17;98460.88;;;12.68;53.94
78488;BME280;67885;49.758;9.582;2023-04-25T02:19:44;98427.72;;;12.54;53.66
78488;BME280;67885;49.758;9.582;2023-04-25T02:22:11;98475.25;;;12.83;54.04
78488;BME280;67885;49.758;9.582;2023-04-25T02:24:37;98470.63;;;12.85;54.54
78488;BME280;67885;49.758;9.582;2023-04-25T02:27:04;98471.97;;;12.89;53.65
78488;BME280;67885;49.758;9.582;2023-04-25T02:29:31;98470.50;;;12.95;54.39
78488;BME280;67885;49.758;9.582;2023-04-25T02:31:59;98461.75;;;13.03;54.53
78488;BME280;67885;49.758;9.582;2023-04-25T02:34:26;98475.63;;;13.14;53.90
78488;BME280;67885;49.758;9.582;2023-04-25T02:36:52;98442.63;;;12.99;53.01
78488;BME280;67885;49.758;9.582;2023-04-25T02:39:19;98468.16;;;13.18;53.91
78488;BME280;67885;49.758;9.582;2023-04-25T02:41:47;98473.69;;;13.25;53.74
78488;BME280;67885;49.758;9.582;2023-04-25T02:44:14;98472.22;;;13.30;54.02
78488;BME280;67885;49.758;9.582;2023-04-25T02:46:40;98467.28;;;13.36;53.76
78488;BME280;67885;49.758;9.582;2023-04-25T02:49:08;98464.63;;;13.36;53.14
78488;BME280;67885;49.758;9.582;2023-04-25T02:51:35;98431.44;;;13.13;53.49
78488;BME280;67885;49.758;9.582;2023-04-25T02:54:02;98452.78;;;13.30;53.03
78488;BME280;67885;49.758;9.582;2023-04-25T02:56:29;98458.91;;;13.30;52.93
78488;BME280;67885;49.758;9.582;2023-04-25T02:58:55;98443.25;;;13.19;53.38
78488;BME280;67885;49.758;9.582;2023-04-25T03:01:22;98474.41;;;13.35;53.31
78488;BME280;67885;49.758;9.582;2023-04-25T03:03:48;98471.22;;;13.31;53.43
78488;BME280;67885;49.758;9.582;2023-04-25T03:06:16;98464.56;;;13.27;53.74
78488;BME280;67885;49.758;9.582;2023-04-25T03:08:43;98470.03;;;13.26;54.60
78488;BME280;67885;49.758;9.582;2023-04-25T03:11:10;98463.72;;;13.27;53.94
78488;BME280;67885;49.758;9.582;2023-04-25T03:13:36;98462.72;;;13.28;54.54
78488;BME280;67885;49.758;9.582;2023-04-25T03:16:03;98465.38;;;13.28;54.77
78488;BME280;67885;49.758;9.582;2023-04-25T03:18:30;98463.56;;;13.28;54.95
78488;BME280;67885;49.758;9.582;2023-04-25T03:20:57;98462.88;;;13.26;54.05
78488;BME280;67885;49.758;9.582;2023-04-25T03:23:25;98445.22;;;13.17;55.21
78488;BME280;67885;49.758;9.582;2023-04-25T03:25:52;98465.69;;;13.25;54.37
78488;BME280;67885;49.758;9.582;2023-04-25T03:28:19;98467.53;;;13.24;54.66
78488;BME280;67885;49.758;9.582;2023-04-25T03:30:45;98447.88;;;13.17;55.32
78488;BME280;67885;49.758;9.582;2023-04-25T03:33:12;98451.22;;;13.19;54.43
78488;BME280;67885;49.758;9.582;2023-04-25T03:35:39;98452.03;;;13.20;54.97
78488;BME280;67885;49.758;9.582;2023-04-25T03:38:05;98460.38;;;13.25;55.25
78488;BME280;67885;49.758;9.582;2023-04-25T03:40:34;98423.19;;;12.98;54.95
78488;BME280;67885;49.758;9.582;2023-04-25T03:43:00;98469.88;;;13.27;54.43
78488;BME280;67885;49.758;9.582;2023-04-25T03:45:27;98466.56;;;13.25;54.77
78488;BME280;67885;49.758;9.582;2023-04-25T03:47:53;98462.22;;;13.24;56.04
78488;BME280;67885;49.758;9.582;2023-04-25T03:50:20;98466.69;;;13.24;55.71
78488;BME280;67885;49.758;9.582;2023-04-25T03:52:47;98454.69;;;13.20;54.58
78488;BME280;67885;49.758;9.582;2023-04-25T03:55:13;98452.69;;;13.13;55.53
78488;BME280;67885;49.758;9.582;2023-04-25T03:57:41;98475.56;;;13.32;55.85
78488;BME280;67885;49.758;9.582;2023-04-25T04:00:09;98478.06;;;13.34;55.60
78488;BME280;67885;49.758;9.582;2023-04-25T04:02:36;98448.69;;;13.09;55.59
78488;BME280;67885;49.758;9.582;2023-04-25T04:05:04;98482.56;;;13.33;55.84
78488;BME280;67885;49.758;9.582;2023-04-25T04:07:32;98482.38;;;13.35;55.82
78488;BME280;67885;49.758;9.582;2023-04-25T04:09:59;98489.50;;;13.35;54.76
78488;BME280;67885;49.758;9.582;2023-04-25T04:12:25;98490.66;;;13.32;54.86
78488;BME280;67885;49.758;9.582;2023-04-25T04:14:53;98492.34;;;13.33;54.90
78488;BME280;67885;49.758;9.582;2023-04-25T04:17:20;98475.84;;;13.21;56.19
78488;BME280;67885;49.758;9.582;2023-04-25T04:19:46;98482.56;;;13.33;56.16
78488;BME280;67885;49.758;9.582;2023-04-25T04:22:13;98476.69;;;13.30;55.82
78488;BME280;67885;49.758;9.582;2023-04-25T04:24:40;98489.91;;;13.40;55.63
78488;BME280;67885;49.758;9.582;2023-04-25T04:27:09;98491.25;;;13.44;57.35
78488;BME280;67885;49.758;9.582;2023-04-25T04:29:35;98473.19;;;13.56;54.94
78488;BME280;67885;49.758;9.582;2023-04-25T04:32:03;98423.09;;;13.08;54.51
78488;BME280;67885;49.758;9.582;2023-04-25T04:34:30;98425.78;;;13.16;54.60
78488;BME280;67885;49.758;9.582;2023-04-25T04:36:57;98496.16;;;13.57;55.18
78488;BME280;67885;49.758;9.582;2023-04-25T04:39:23;98433.75;;;13.16;55.58
78488;BME280;67885;49.758;9.582;2023-04-25T04:41:50;98500.78;;;13.55;55.06
78488;BME280;67885;49.758;9.582;2023-04-25T04:44:17;98495.25;;;13.48;55.26
78488;BME280;67885;49.758;9.582;2023-04-25T04:46:44;98503.66;;;13.61;56.36
78488;BME280;67885;49.758;9.582;2023-04-25T04:49:13;98497.41;;;13.87;52.96
78488;BME280;67885;49.758;9.582;2023-04-25T04:51:40;98512.56;;;13.87;53.88
78488;BME280;67885;49.758;9.582;2023-04-25T04:54:09;98506.88;;;13.81;53.41
78488;BME280;67885;49.758;9.582;2023-04-25T04:56:36;98505.22;;;13.80;52.84
78488;BME280;67885;49.758;9.582;2023-04-25T04:59:03;98518.03;;;13.77;53.52
78488;BME280;67885;49.758;9.582;2023-04-25T05:01:29;98515.31;;;13.69;53.26
78488;BME280;67885;49.758;9.582;2023-04-25T05:03:56;98514.44;;;13.60;53.62
78488;BME280;67885;49.758;9.582;2023-04-25T05:06:27;98468.19;;;13.26;54.26
78488;BME280;67885;49.758;9.582;2023-04-25T05:08:55;98518.09;;;13.59;53.63
78488;BME280;67885;49.758;9.582;2023-04-25T05:11:22;98520.75;;;13.59;54.67
78488;BME280;67885;49.758;9.582;2023-04-25T05:13:50;98494.41;;;13.39;54.13
78488;BME280;67885;49.758;9.582;2023-04-25T05:16:17;98516.13;;;13.61;54.13
78488;BME280;67885;49.758;9.582;2023-04-25T05:18:44;98521.44;;;13.61;53.97
78488;BME280;67885;49.758;9.582;2023-04-25T05:21:11;98434.00;;;12.97;53.25
78488;BME280;67885;49.758;9.582;2023-04-25T05:23:39;98528.25;;;13.55;53.69
78488;BME280;67885;49.758;9.582;2023-04-25T05:26:05;98527.56;;;13.53;53.52
78488;BME280;67885;49.758;9.582;2023-04-25T05:28:38;98526.91;;;13.51;52.70
78488;BME280;67885;49.758;9.582;2023-04-25T05:31:05;98530.69;;;13.48;52.88
78488;BME280;67885;49.758;9.582;2023-04-25T05:33:32;98536.03;;;13.48;53.12
78488;BME280;67885;49.758;9.582;2023-04-25T05:35:58;98531.16;;;13.44;53.30
78488;BME280;67885;49.758;9.582;2023-04-25T05:38:25;98434.88;;;12.79;53.11
78488;BME280;67885;49.758;9.582;2023-04-25T05:40:53;98539.63;;;13.39;53.71
78488;BME280;67885;49.758;9.582;2023-04-25T05:43:20;98537.38;;;13.35;53.74
78488;BME280;67885;49.758;9.582;2023-04-25T05:45:46;98542.88;;;13.33;54.07
78488;BME280;67885;49.758;9.582;2023-04-25T05:48:13;98536.03;;;13.30;54.30
78488;BME280;67885;49.758;9.582;2023-04-25T05:50:40;98545.69;;;13.31;55.42
78488;BME280;67885;49.758;9.582;2023-04-25T05:53:06;98542.69;;;13.35;53.98
78488;BME280;67885;49.758;9.582;2023-04-25T05:55:34;98547.75;;;13.38;54.65
78488;BME280;67885;49.758;9.582;2023-04-25T05:58:02;98521.53;;;13.25;54.54
78488;BME280;67885;49.758;9.582;2023-04-25T06:00:29;98551.25;;;13.38;54.18
78488;BME280;67885;49.758;9.582;2023-04-25T06:02:55;98541.50;;;13.29;53.93
78488;BME280;67885;49.758;9.582;2023-04-25T06:05:22;98450.78;;;12.71;54.71
78488;BME280;67885;49.758;9.582;2023-04-25T06:07:48;98553.25;;;13.36;54.29
78488;BME280;67885;49.758;9.582;2023-04-25T06:10:15;98556.41;;;13.40;54.34
78488;BME280;67885;49.758;9.582;2023-04-25T06:12:42;98551.09;;;13.40;54.31
78488;BME280;67885;49.758;9.582;2023-04-25T06:15:10;98552.91;;;13.39;54.25
78488;BME280;67885;49.758;9.582;2023-04-25T06:17:37;98560.94;;;13.47;54.45
78488;BME280;67885;49.758;9.582;2023-04-25T06:20:04;98543.09;;;13.40;54.50
78488;BME280;67885;49.758;9.582;2023-04-25T06:22:31;98561.16;;;13.54;54.48
78488;BME280;67885;49.758;9.582;2023-04-25T06:24:58;98557.63;;;13.54;54.71
78488;BME280;67885;49.758;9.582;2023-04-25T06:27:25;98562.50;;;13.58;54.33
78488;BME280;67885;49.758;9.582;2023-04-25T06:29:52;98559.00;;;13.58;54.45
78488;BME280;67885;49.758;9.582;2023-04-25T06:32:20;98562.19;;;13.61;54.06
78488;BME280;67885;49.758;9.582;2023-04-25T06:34:46;98569.91;;;13.73;54.05
78488;BME280;67885;49.758;9.582;2023-04-25T06:37:13;98570.94;;;13.80;53.18
78488;BME280;67885;49.758;9.582;2023-04-25T06:39:39;98574.25;;;13.82;51.93
78488;BME280;67885;49.758;9.582;2023-04-25T06:42:06;98546.75;;;13.65;52.16
78488;BME280;67885;49.758;9.582;2023-04-25T06:44:33;98555.59;;;13.74;53.62
78488;BME280;67885;49.758;9.582;2023-04-25T06:47:00;98575.31;;;13.89;51.90
78488;BME280;67885;49.758;9.582;2023-04-25T06:49:28;98574.97;;;13.92;51.86
78488;BME280;67885;49.758;9.582;2023-04-25T06:51:54;98538.78;;;13.73;51.70
78488;BME280;67885;49.758;9.582;2023-04-25T06:54:21;98521.94;;;13.64;50.56
78488;BME280;67885;49.758;9.582;2023-04-25T06:56:47;98557.28;;;13.83;51.30
78488;BME280;67885;49.758;9.582;2023-04-25T06:59:15;98563.50;;;13.92;50.69
78488;BME280;67885;49.758;9.582;2023-04-25T07:01:41;98562.16;;;13.88;50.35
78488;BME280;67885;49.758;9.582;2023-04-25T07:04:08;98571.81;;;13.97;49.50
78488;BME280;67885;49.758;9.582;2023-04-25T07:06:36;98576.31;;;13.96;49.96
78488;BME280;67885;49.758;9.582;2023-04-25T07:09:07;98589.00;;;14.03;49.27
78488;BME280;67885;49.758;9.582;2023-04-25T07:11:35;98558.81;;;13.86;48.72
78488;BME280;67885;49.758;9.582;2023-04-25T07:14:02;98589.66;;;14.05;47.46
78488;BME280;67885;49.758;9.582;2023-04-25T07:16:29;98587.31;;;14.02;47.96
78488;BME280;67885;49.758;9.582;2023-04-25T07:18:55;98574.66;;;13.95;48.83
78488;BME280;67885;49.758;9.582;2023-04-25T07:21:22;98592.69;;;14.10;48.46
78488;BME280;67885;49.758;9.582;2023-04-25T07:23:50;98462.31;;;13.41;48.86
78488;BME280;67885;49.758;9.582;2023-04-25T07:26:16;98582.41;;;14.23;50.14
78488;BME280;67885;49.758;9.582;2023-04-25T07:28:43;98599.25;;;14.32;49.35
78488;BME280;67885;49.758;9.582;2023-04-25T07:31:11;98591.28;;;14.40;47.88
78488;BME280;67885;49.758;9.582;2023-04-25T07:33:37;98572.63;;;14.40;48.23
78488;BME280;67885;49.758;9.582;2023-04-25T07:36:05;98591.31;;;14.57;45.71
78488;BME280;67885;49.758;9.582;2023-04-25T07:38:31;98587.84;;;14.64;45.72
78488;BME280;67885;49.758;9.582;2023-04-25T07:40:59;98587.88;;;14.73;47.60
78488;BME280;67885;49.758;9.582;2023-04-25T07:43:26;98558.53;;;14.73;45.80
78488;BME280;67885;49.758;9.582;2023-04-25T07:45:53;98579.41;;;14.94;44.59
78488;BME280;67885;49.758;9.582;2023-04-25T07:48:19;98600.72;;;15.18;43.99
78488;BME280;67885;49.758;9.582;2023-04-25T07:50:46;98610.72;;;15.33;42.62
78488;BME280;67885;49.758;9.582;2023-04-25T07:53:12;98585.38;;;15.29;42.92
78488;BME280;67885;49.758;9.582;2023-04-25T07:55:39;98601.53;;;15.44;41.52
78488;BME280;67885;49.758;9.582;2023-04-25T07:58:07;98574.19;;;15.33;43.69
78488;BME280;67885;49.758;9.582;2023-04-25T08:00:34;98607.34;;;15.56;42.73
78488;BME280;67885;49.758;9.582;2023-04-25T08:03:00;98563.88;;;15.30;42.74
78488;BME280;67885;49.758;9.582;2023-04-25T08:05:28;98598.19;;;15.50;42.21
78488;BME280;67885;49.758;9.582;2023-04-25T08:07:55;98607.84;;;15.59;43.13
78488;BME280;67885;49.758;9.582;2023-04-25T08:10:22;98594.31;;;15.61;43.18
78488;BME280;67885;49.758;9.582;2023-04-25T08:12:49;98608.97;;;15.73;42.65
78488;BME280;67885;49.758;9.582;2023-04-25T08:15:17;98611.50;;;15.83;43.46
78488;BME280;67885;49.758;9.582;2023-04-25T08:17:43;98610.81;;;15.81;42.15
78488;BME280;67885;49.758;9.582;2023-04-25T08:20:11;98570.44;;;15.67;41.70
78488;BME280;67885;49.758;9.582;2023-04-25T08:22:38;98619.63;;;15.98;41.73
78488;BME280;67885;49.758;9.582;2023-04-25T08:25:05;98615.31;;;15.89;41.10
78488;BME280;67885;49.758;9.582;2023-04-25T08:27:32;98621.59;;;16.04;40.23
78488;BME280;67885;49.758;9.582;2023-04-25T08:29:59;98629.09;;;16.17;42.42
78488;BME280;67885;49.758;9.582;2023-04-25T08:32:27;98621.66;;;16.27;41.39
78488;BME280;67885;49.758;9.582;2023-04-25T08:34:53;98623.44;;;16.43;41.51
78488;BME280;67885;49.758;9.582;2023-04-25T08:37:20;98626.69;;;16.62;41.18
78488;BME280;67885;49.758;9.582;2023-04-25T08:39:47;98619.13;;;16.65;40.87
78488;BME280;67885;49.758;9.582;2023-04-25T08:42:15;98619.25;;;16.72;40.90
78488;BME280;67885;49.758;9.582;2023-04-25T08:44:43;98629.06;;;16.80;40.99
78488;BME280;67885;49.758;9.582;2023-04-25T08:47:11;98671.16;;;16.94;40.48
78488;BME280;67885;49.758;9.582;2023-04-25T08:49:43;98643.19;;;16.97;40.60
78488;BME280;67885;49.758;9.582;2023-04-25T08:52:13;98641.81;;;17.01;40.83
78488;BME280;67885;49.758;9.582;2023-04-25T08:54:41;98632.50;;;16.97;38.20
78488;BME280;67885;49.758;9.582;2023-04-25T08:57:09;98647.97;;;17.10;36.98
78488;BME280;67885;49.758;9.582;2023-04-25T08:59:37;98650.28;;;17.13;36.74
78488;BME280;67885;49.758;9.582;2023-04-25T09:02:05;98654.19;;;17.02;36.49
78488;BME280;67885;49.758;9.582;2023-04-25T09:04:34;98661.28;;;16.95;36.90
78488;BME280;67885;49.758;9.582;2023-04-25T09:07:02;98649.75;;;16.86;36.79
78488;BME280;67885;49.758;9.582;2023-04-25T09:09:29;98675.84;;;16.92;36.12
78488;BME280;67885;49.758;9.582;2023-04-25T09:11:55;98676.84;;;16.83;35.59
78488;BME280;67885;49.758;9.582;2023-04-25T09:14:23;98686.91;;;16.81;36.50
78488;BME280;67885;49.758;9.582;2023-04-25T09:17:02;98672.09;;;16.70;36.82
78488;BME280;67885;49.758;9.582;2023-04-25T09:19:31;98677.13;;;16.65;36.44
78488;BME280;67885;49.758;9.582;2023-04-25T09:22:00;98691.13;;;16.67;37.37
78488;BME280;67885;49.758;9.582;2023-04-25T09:24:33;98692.84;;;16.60;37.08
78488;BME280;67885;49.758;9.582;2023-04-25T09:27:03;98685.09;;;16.42;37.74
78488;BME280;67885;49.758;9.582;2023-04-25T09:29:31;98690.41;;;16.50;36.15
78488;BME280;67885;49.758;9.582;2023-04-25T09:32:13;98700.69;;;16.61;38.09
78488;BME280;67885;49.758;9.582;2023-04-25T09:34:41;98706.53;;;16.65;40.24
78488;BME280;67885;49.758;9.582;2023-04-25T09:37:08;98705.13;;;16.77;37.63
78488;BME280;67885;49.758;9.582;2023-04-25T09:39:38;98675.41;;;16.72;38.64
78488;BME280;67885;49.758;9.582;2023-04-25T09:42:05;98708.81;;;17.08;37.54
78488;BME280;67885;49.758;9.582;2023-04-25T09:44:32;98703.78;;;17.13;36.58
78488;BME280;67885;49.758;9.582;2023-04-25T09:46:58;98699.63;;;17.10;37.52
78488;BME280;67885;49.758;9.582;2023-04-25T09:49:26;98707.25;;;17.22;35.67
78488;BME280;67885;49.758;9.582;2023-04-25T09:51:56;98700.72;;;17.24;36.87
78488;BME280;67885;49.758;9.582;2023-04-25T09:54:23;98673.59;;;17.04;37.58
78488;BME280;67885;49.758;9.582;2023-04-25T09:56:53;98704.16;;;17.33;38.33
78488;BME280;67885;49.758;9.582;2023-04-25T09:59:20;98712.19;;;17.33;38.49
78488;BME280;67885;49.758;9.582;2023-04-25T10:01:48;98716.03;;;17.30;38.13
78488;BME280;67885;49.758;9.582;2023-04-25T10:04:19;98717.28;;;17.19;38.13
78488;BME280;67885;49.758;9.582;2023-04-25T10:06:49;98717.84;;;17.15;39.13
78488;BME280;67885;49.758;9.582;2023-04-25T10:09:20;98721.16;;;17.17;38.95
78488;BME280;67885;49.758;9.582;2023-04-25T10:11:48;98714.16;;;17.16;38.59
78488;BME280;67885;49.758;9.582;2023-04-25T10:14:18;98716.91;;;17.23;40.15
78488;BME280;67885;49.758;9.582;2023-04-25T10:16:47;98713.72;;;17.27;38.09
78488;BME280;67885;49.758;9.582;2023-04-25T10:19:16;98672.59;;;17.05;37.18
78488;BME280;67885;49.758;9.582;2023-04-25T10:21:48;98713.06;;;17.25;36.46
78488;BME280;67885;49.758;9.582;2023-04-25T10:24:16;98714.91;;;17.25;36.01
78488;BME280;67885;49.758;9.582;2023-04-25T10:26:43;98714.72;;;17.26;34.97
78488;BME280;67885;49.758;9.582;2023-04-25T10:29:10;98710.69;;;17.30;37.78
78488;BME280;67885;49.758;9.582;2023-04-25T10:31:46;98722.63;;;17.43;35.50
78488;BME280;67885;49.758;9.582;2023-04-25T10:34:13;98728.00;;;17.43;36.05
78488;BME280;67885;49.758;9.582;2023-04-25T10:36:40;98730.03;;;17.41;36.54
78488;BME280;67885;49.758;9.582;2023-04-25T10:39:07;98729.44;;;17.30;37.43
78488;BME280;67885;49.758;9.582;2023-04-25T10:41:46;98718.22;;;17.27;37.19
78488;BME280;67885;49.758;9.582;2023-04-25T10:44:14;98722.69;;;17.34;37.50
78488;BME280;67885;49.758;9.582;2023-04-25T10:46:40;98737.69;;;17.44;37.24
78488;BME280;67885;49.758;9.582;2023-04-25T10:49:08;98719.56;;;17.31;35.71
78488;BME280;67885;49.758;9.582;2023-04-25T10:51:36;98730.31;;;17.23;35.87
78488;BME280;67885;49.758;9.582;2023-04-25T10:54:05;98722.69;;;17.11;36.42
78488;BME280;67885;49.758;9.582;2023-04-25T10:56:37;98746.59;;;17.13;36.57
78488;BME280;67885;49.758;9.582;2023-04-25T10:59:06;98729.78;;;17.04;36.34
78488;BME280;67885;49.758;9.582;2023-04-25T11:01:39;98747.97;;;17.09;37.01
78488;BME280;67885;49.758;9.582;2023-04-25T11:04:21;98751.88;;;16.98;36.90
78488;BME280;67885;49.758;9.582;2023-04-25T11:07:00;98756.72;;;17.02;36.50
78488;BME280;67885;49.758;9.582;2023-04-25T11:09:28;98758.22;;;16.97;37.18
78488;BME280;67885;49.758;9.582;2023-04-25T11:11:56;98758.56;;;16.94;35.94
78488;BME280;67885;49.758;9.582;2023-04-25T11:14:23;98765.28;;;16.90;36.95
78488;BME280;67885;49.758;9.582;2023-04-25T11:16:52;98763.09;;;16.93;37.38
78488;BME280;67885;49.758;9.582;2023-04-25T11:19:21;98752.41;;;16.93;37.55
78488;BME280;67885;49.758;9.582;2023-04-25T11:21:48;98760.91;;;16.89;37.43
78488;BME280;67885;49.758;9.582;2023-04-25T11:24:15;98751.03;;;16.97;38.76
78488;BME280;67885;49.758;9.582;2023-04-25T11:26:43;98764.56;;;17.04;36.69
78488;BME280;67885;49.758;9.582;2023-04-25T11:29:10;98720.13;;;16.86;36.74
78488;BME280;67885;49.758;9.582;2023-04-25T11:31:37;98765.09;;;17.23;38.09
78488;BME280;67885;49.758;9.582;2023-04-25T11:34:03;98771.06;;;17.33;36.81
78488;BME280;67885;49.758;9.582;2023-04-25T11:36:31;98752.88;;;17.28;35.56
78488;BME280;67885;49.758;9.582;2023-04-25T11:38:58;98747.53;;;17.28;36.34
78488;BME280;67885;49.758;9.582;2023-04-25T11:41:25;98668.88;;;16.75;35.12
78488;BME280;67885;49.758;9.582;2023-04-25T11:43:52;98748.88;;;17.24;36.48
78488;BME280;67885;49.758;9.582;2023-04-25T11:46:19;98755.88;;;17.25;37.24
78488;BME280;67885;49.758;9.582;2023-04-25T11:48:46;98756.56;;;17.27;35.63
78488;BME280;67885;49.758;9.582;2023-04-25T11:51:13;98754.81;;;17.34;36.23
78488;BME280;67885;49.758;9.582;2023-04-25T11:53:44;98770.50;;;17.46;38.24
78488;BME280;67885;49.758;9.582;2023-04-25T11:56:11;98752.28;;;17.41;37.39
78488;BME280;67885;49.758;9.582;2023-04-25T11:58:54;98769.28;;;17.48;36.12
78488;BME280;67885;49.758;9.582;2023-04-25T12:01:26;98751.69;;;17.31;36.32
78488;BME280;67885;49.758;9.582;2023-04-25T12:03:52;98774.34;;;17.43;35.79
78488;BME280;67885;49.758;9.582;2023-04-25T12:06:19;98770.88;;;17.34;36.13
78488;BME280;67885;49.758;9.582;2023-04-25T12:09:01;98773.03;;;17.16;35.76
78488;BME280;67885;49.758;9.582;2023-04-25T12:11:29;98740.91;;;16.76;35.43
78488;BME280;67885;49.758;9.582;2023-04-25T12:14:01;98781.78;;;17.01;35.90
78488;BME280;67885;49.758;9.582;2023-04-25T12:16:28;98784.13;;;16.96;35.46
78488;BME280;67885;49.758;9.582;2023-04-25T12:18:55;98783.66;;;16.84;35.67
78488;BME280;67885;49.758;9.582;2023-04-25T12:21:22;98685.00;;;16.18;35.95
78488;BME280;67885;49.758;9.582;2023-04-25T12:23:48;98772.88;;;16.61;35.96
78488;BME280;67885;49.758;9.582;2023-04-25T12:26:17;98797.63;;;16.63;37.33
78488;BME280;67885;49.758;9.582;2023-04-25T12:28:45;98795.13;;;16.62;37.77
78488;BME280;67885;49.758;9.582;2023-04-25T12:31:13;98798.78;;;16.61;36.90
78488;BME280;67885;49.758;9.582;2023-04-25T12:33:41;98798.97;;;16.59;37.09
78488;BME280;67885;49.758;9.582;2023-04-25T12:36:09;98806.63;;;16.62;36.88
78488;BME280;67885;49.758;9.582;2023-04-25T12:38:38;98800.16;;;16.57;38.18
78488;BME280;67885;49.758;9.582;2023-04-25T12:41:05;98807.63;;;16.61;36.76
78488;BME280;67885;49.758;9.582;2023-04-25T12:43:34;98818.69;;;16.58;36.70
78488;BME280;67885;49.758;9.582;2023-04-25T12:46:01;98699.91;;;15.88;36.60
78488;BME280;67885;49.758;9.582;2023-04-25T12:48:27;98822.69;;;16.54;37.39
78488;BME280;67885;49.758;9.582;2023-04-25T12:50:54;98813.00;;;16.53;37.34
78488;BME280;67885;49.758;9.582;2023-04-25T12:53:22;98820.19;;;16.61;37.01
78488;BME280;67885;49.758;9.582;2023-04-25T12:55:50;98829.88;;;16.62;37.31
78488;BME280;67885;49.758;9.582;2023-04-25T12:58:18;98810.50;;;16.51;37.33
78488;BME280;67885;49.758;9.582;2023-04-25T13:00:46;98836.03;;;16.62;37.68
78488;BME280;67885;49.758;9.582;2023-04-25T13:03:13;98833.19;;;16.64;37.18